Time;durP1;ratioP1;P1;durP2;ratioP2;P2;SDS_P1;SDS_P2;PMS_P1;PMS_P2;Temp;Humidity;BMP_temperature;BMP_pressure;BME280_temperature;BME280_humidity;BME280_pressure;Samples;Min_cycle;Max_cycle;Signal;HPM_P1;HPM_P2
2022/08/16 00:01:17;;;;;;;1.83;1.57;;;18.90;99.90;;;;;;5092123;28;20466;-72
2022/08/16 00:03:44;;;;;;;2.40;1.93;;;18.90;99.90;;;;;;5091951;28;20453;-72
2022/08/16 00:06:12;;;;;;;2.13;1.73;;;18.90;99.90;;;;;;5092137;28;20444;-72
2022/08/16 00:08:39;;;;;;;2.20;2.00;;;18.80;99.90;;;;;;5092436;28;20463;-72
2022/08/16 00:11:11;;;;;;;2.93;1.90;;;18.80;1.00;;;;;;5092055;28;20486;-72
2022/08/16 00:13:38;;;;;;;2.73;1.70;;;18.70;1.00;;;;;;5078951;28;20460;-73
2022/08/16 00:16:05;;;;;;;2.23;1.70;;;18.60;99.90;;;;;;5096459;28;20448;-72
2022/08/16 00:18:32;;;;;;;2.03;1.63;;;18.50;99.90;;;;;;5092175;28;20762;-72
2022/08/16 00:20:59;;;;;;;2.23;2.03;;;18.50;1.00;;;;;;5091118;28;20916;-71
2022/08/16 00:23:26;;;;;;;2.30;2.03;;;18.50;1.00;;;;;;5091673;28;20452;-72
2022/08/16 00:25:53;;;;;;;2.33;1.63;;;18.50;1.00;;;;;;5090584;28;20532;-72
2022/08/16 00:28:22;;;;;;;2.63;2.00;;;18.50;1.00;;;;;;5091703;28;20436;-72
2022/08/16 00:30:49;;;;;;;2.10;1.70;;;18.50;1.00;;;;;;5090824;28;20445;-73
2022/08/16 00:33:16;;;;;;;2.80;1.90;;;18.50;1.00;;;;;;5092129;28;20448;-73
2022/08/16 00:35:43;;;;;;;2.13;1.93;;;18.50;1.00;;;;;;5090249;28;20938;-72
2022/08/16 00:38:10;;;;;;;1.70;1.40;;;18.40;1.00;;;;;;5092039;28;20437;-72
2022/08/16 00:40:41;;;;;;;3.03;2.13;;;18.40;99.90;;;;;;5091914;28;20445;-73
2022/08/16 00:43:10;;;;;;;2.47;1.83;;;18.40;1.00;;;;;;5091991;28;20437;-72
2022/08/16 00:45:43;;;;;;;2.30;1.77;;;18.40;6.20;;;;;;5092440;28;20443;-72
2022/08/16 00:48:13;;;;;;;2.63;1.83;;;18.30;99.90;;;;;;5100404;28;20437;-71
2022/08/16 00:50:40;;;;;;;2.60;2.30;;;18.30;1.00;;;;;;5091331;28;20448;-72
2022/08/16 00:53:12;;;;;;;3.70;2.40;;;18.20;99.90;;;;;;5091683;28;20476;-72
2022/08/16 00:55:42;;;;;;;2.43;2.10;;;18.10;1.00;;;;;;5090918;28;20441;-72
2022/08/16 00:58:10;;;;;;;2.60;1.80;;;18.10;1.00;;;;;;5091193;28;20533;-71
2022/08/16 01:00:39;;;;;;;3.17;1.93;;;18.10;99.90;;;;;;5091728;28;20443;-72
2022/08/16 01:03:09;;;;;;;2.63;2.00;;;18.00;99.90;;;;;;5090842;28;20456;-72
2022/08/16 01:05:37;;;;;;;3.10;1.87;;;18.00;99.90;;;;;;5090652;28;20516;-72
2022/08/16 01:08:06;;;;;;;2.00;1.80;;;17.90;1.00;;;;;;5090365;28;20946;-72
2022/08/16 01:10:34;;;;;;;2.40;2.20;;;17.90;1.00;;;;;;5090914;28;20449;-72
2022/08/16 01:13:04;;;;;;;2.90;2.30;;;17.90;31.80;;;;;;5090436;28;20476;-72
2022/08/16 01:15:32;;;;;;;3.07;2.10;;;17.80;99.90;;;;;;5091461;28;20447;-72
2022/08/16 01:18:03;;;;;;;3.00;2.17;;;17.90;99.90;;;;;;5094590;28;20441;-72
2022/08/16 01:20:35;;;;;;;3.30;2.17;;;18.00;99.90;;;;;;5091209;28;20449;-72
2022/08/16 01:23:11;;;;;;;2.93;1.93;;;18.00;46.00;;;;;;5090590;28;21419;-72
2022/08/16 01:25:43;;;;;;;1.70;1.60;;;18.00;1.00;;;;;;5090607;28;20912;-72
2022/08/16 01:28:15;;;;;;;2.80;2.50;;;18.10;1.00;;;;;;5091392;28;20441;-72
2022/08/16 01:30:46;;;;;;;2.83;2.30;;;18.10;1.00;;;;;;5090668;28;20904;-69
2022/08/16 01:33:13;;;;;;;2.50;2.17;;;18.20;1.00;;;;;;5091291;28;20575;-71
2022/08/16 01:35:45;;;;;;;2.70;2.50;;;18.10;1.00;;;;;;5090438;28;20481;-71
2022/08/16 01:38:19;;;;;;;2.43;1.87;;;18.10;7.00;;;;;;5091143;28;20437;-71
2022/08/16 01:40:49;;;;;;;3.10;2.80;;;18.20;1.00;;;;;;5090100;28;20901;-72
2022/08/16 01:43:16;;;;;;;3.40;2.20;;;18.10;7.00;;;;;;5090952;28;20445;-72
2022/08/16 01:45:43;;;;;;;2.90;2.50;;;18.10;99.90;;;;;;5092145;28;20531;-71
2022/08/16 01:48:11;;;;;;;4.90;1.97;;;18.30;1.00;;;;;;5099899;28;20443;-71
2022/08/16 01:50:42;;;;;;;2.93;2.20;;;18.50;1.00;;;;;;5090939;28;20443;-72
2022/08/16 01:53:09;;;;;;;2.93;2.07;;;18.60;1.00;;;;;;5091036;28;20476;-73
2022/08/16 01:55:37;;;;;;;4.80;2.17;;;18.60;99.90;;;;;;5091152;28;20445;-73
2022/08/16 01:58:05;;;;;;;2.87;2.13;;;18.70;1.00;;;;;;5090704;28;20440;-73
2022/08/16 02:00:32;;;;;;;2.40;2.20;;;18.60;1.00;;;;;;5094479;28;20444;-72
2022/08/16 02:02:59;;;;;;;2.53;2.03;;;18.50;99.90;;;;;;5094125;28;20460;-72
2022/08/16 02:05:26;;;;;;;4.00;1.83;;;18.50;1.00;;;;;;5094311;28;20459;-73
2022/08/16 02:07:53;;;;;;;2.50;2.10;;;18.40;1.00;;;;;;5093764;28;20447;-72
2022/08/16 02:10:20;;;;;;;3.87;2.67;;;18.30;99.90;;;;;;5094567;28;20432;-72
2022/08/16 02:12:47;;;;;;;3.10;2.40;;;18.30;1.00;;;;;;5093896;28;20475;-72
2022/08/16 02:15:18;;;;;;;3.80;2.80;;;18.40;1.00;;;;;;5094194;28;20444;-72
2022/08/16 02:17:45;;;;;;;2.63;2.33;;;18.50;99.90;;;;;;5098516;28;20429;-72
2022/08/16 02:20:12;;;;;;;3.57;2.70;;;18.50;1.00;;;;;;5094306;28;20539;-71
2022/08/16 02:22:39;;;;;;;2.63;2.00;;;18.50;99.90;;;;;;5094477;28;20447;-72
2022/08/16 02:25:12;;;;;;;2.70;2.40;;;18.50;1.00;;;;;;5093154;28;20456;-72
2022/08/16 02:27:40;;;;;;;2.97;2.63;;;18.40;1.00;;;;;;5094019;28;20443;-72
2022/08/16 02:30:13;;;;;;;2.30;2.10;;;18.50;1.00;;;;;;5094432;28;20440;-72
2022/08/16 02:32:42;;;;;;;2.73;2.47;;;18.50;1.00;;;;;;5094340;28;20472;-72
2022/08/16 02:35:09;;;;;;;2.60;2.33;;;18.40;99.90;;;;;;5093685;28;20447;-73
2022/08/16 02:37:36;;;;;;;3.17;2.30;;;18.50;99.90;;;;;;5094187;28;20457;-73
2022/08/16 02:40:05;;;;;;;3.33;2.30;;;18.60;31.90;;;;;;5093555;28;20441;-72
2022/08/16 02:42:32;;;;;;;2.57;2.00;;;18.70;99.90;;;;;;5093646;28;21066;-72
2022/08/16 02:44:59;;;;;;;4.37;2.47;;;18.70;99.90;;;;;;5092985;28;20441;-72
2022/08/16 02:47:26;;;;;;;3.73;2.43;;;18.80;1.00;;;;;;5104913;28;20468;-72
2022/08/16 02:49:54;;;;;;;2.90;2.70;;;18.90;1.00;;;;;;5093256;28;20532;-72
2022/08/16 02:52:21;;;;;;;2.43;2.10;;;18.80;1.00;;;;;;5093537;28;20477;-72
2022/08/16 02:54:48;;;;;;;2.37;2.17;;;18.80;99.90;;;;;;5092490;28;20443;-72
2022/08/16 02:57:15;;;;;;;3.43;2.23;;;18.60;1.00;;;;;;5093642;28;20531;-72
2022/08/16 02:59:42;;;;;;;2.20;2.00;;;18.60;1.00;;;;;;5093798;28;20440;-69
2022/08/16 03:02:10;;;;;;;2.80;2.10;;;18.60;18.40;;;;;;5080087;28;20452;-72
2022/08/16 03:04:36;;;;;;;2.53;1.83;;;18.60;99.90;;;;;;5093172;28;20828;-74
2022/08/16 03:07:06;;;;;;;2.60;2.40;;;18.70;1.00;;;;;;5093120;28;20428;-73
2022/08/16 03:09:32;;;;;;;2.53;2.13;;;18.60;99.90;;;;;;5093174;28;20462;-73
2022/08/16 03:11:59;;;;;;;3.27;2.53;;;18.60;99.90;;;;;;5092839;28;20804;-72
2022/08/16 03:14:27;;;;;;;2.70;2.30;;;18.50;99.90;;;;;;5092715;28;20441;-72
2022/08/16 03:16:54;;;;;;;2.23;1.97;;;18.40;99.90;;;;;;5097075;28;20433;-73
2022/08/16 03:19:22;;;;;;;2.43;2.23;;;18.40;1.00;;;;;;5093219;28;20781;-72
2022/08/16 03:21:48;;;;;;;5.37;2.67;;;18.40;1.00;;;;;;5092692;28;20447;-72
2022/08/16 03:24:17;;;;;;;2.93;2.60;;;18.40;1.00;;;;;;5092532;28;20441;-72
2022/08/16 03:26:44;;;;;;;2.57;2.13;;;18.30;1.00;;;;;;5092290;28;20944;-72
2022/08/16 03:29:11;;;;;;;2.50;2.30;;;18.30;1.00;;;;;;5093004;28;20991;-72
2022/08/16 03:31:38;;;;;;;3.30;2.00;;;18.40;1.00;;;;;;5093081;28;20448;-72
2022/08/16 03:34:05;;;;;;;2.37;2.17;;;18.30;1.00;;;;;;5091975;28;20534;-72
2022/08/16 03:36:32;;;;;;;3.10;2.57;;;18.30;1.00;;;;;;5092692;28;20986;-72
2022/08/16 03:38:59;;;;;;;4.60;2.90;;;18.30;1.00;;;;;;5092024;28;21007;-72
2022/08/16 03:41:27;;;;;;;2.87;2.43;;;18.30;1.00;;;;;;5092506;28;20490;-72
2022/08/16 03:43:54;;;;;;;3.10;2.33;;;18.30;1.00;;;;;;5091536;28;20456;-72
2022/08/16 03:46:21;;;;;;;3.37;2.80;;;18.30;1.00;;;;;;5100426;28;20455;-72
2022/08/16 03:48:49;;;;;;;3.30;2.83;;;18.30;1.00;;;;;;5095673;28;20520;-72
2022/08/16 03:51:16;;;;;;;3.80;2.70;;;18.30;1.00;;;;;;5092818;28;20440;-72
2022/08/16 03:53:43;;;;;;;2.40;2.10;;;18.20;1.00;;;;;;5091918;28;20598;-71
2022/08/16 03:56:11;;;;;;;3.10;2.60;;;18.20;1.00;;;;;;5092505;28;20440;-72
2022/08/16 03:58:39;;;;;;;4.47;3.07;;;18.10;1.00;;;;;;5092220;28;20527;-71
2022/08/16 04:01:06;;;;;;;4.50;2.20;;;18.10;1.00;;;;;;5091700;28;20436;-72
2022/08/16 04:03:33;;;;;;;2.77;2.47;;;18.10;1.00;;;;;;5092610;28;20453;-72
2022/08/16 04:06:00;;;;;;;2.90;2.60;;;18.10;1.00;;;;;;5091501;28;20443;-72
2022/08/16 04:08:27;;;;;;;2.70;2.50;;;18.10;1.00;;;;;;5092232;28;20451;-73
2022/08/16 04:10:55;;;;;;;3.60;2.27;;;18.00;1.00;;;;;;5091494;28;20441;-72
2022/08/16 04:13:22;;;;;;;2.90;2.07;;;18.00;1.00;;;;;;5092083;28;20476;-72
2022/08/16 04:15:51;;;;;;;3.57;2.27;;;18.00;1.00;;;;;;5094378;28;20451;-73
2022/08/16 04:18:19;;;;;;;2.77;2.47;;;18.00;1.00;;;;;;5093260;28;20924;-72
2022/08/16 04:20:45;;;;;;;3.20;2.40;;;17.90;1.00;;;;;;5091524;28;20433;-72
2022/08/16 04:23:12;;;;;;;4.20;2.90;;;18.00;1.00;;;;;;5091379;28;20539;-71
2022/08/16 04:25:39;;;;;;;3.40;2.40;;;18.00;1.00;;;;;;5091751;28;20532;-73
2022/08/16 04:28:06;;;;;;;2.83;2.30;;;18.00;1.00;;;;;;5091306;28;20521;-73
2022/08/16 04:30:33;;;;;;;3.33;2.50;;;18.00;1.00;;;;;;5091525;28;20459;-73
2022/08/16 04:33:02;;;;;;;3.60;2.20;;;18.00;1.00;;;;;;5091067;28;20586;-73
2022/08/16 04:35:29;;;;;;;2.13;1.93;;;18.00;1.00;;;;;;5090783;28;20912;-73
2022/08/16 04:37:55;;;;;;;3.67;2.70;;;18.00;1.00;;;;;;5091077;28;20841;-73
2022/08/16 04:40:24;;;;;;;3.83;2.93;;;18.10;1.00;;;;;;5091699;28;20784;-73
2022/08/16 04:42:51;;;;;;;3.90;2.70;;;18.20;1.00;;;;;;5091265;28;20734;-73
2022/08/16 04:45:20;;;;;;;2.07;1.90;;;18.30;1.00;;;;;;5091273;28;20441;-73
2022/08/16 04:47:47;;;;;;;3.43;2.90;;;18.30;1.00;;;;;;5102165;28;20449;-72
2022/08/16 04:50:18;;;;;;;3.97;3.57;;;18.40;1.00;;;;;;5091047;28;20447;-72
2022/08/16 04:52:46;;;;;;;2.77;2.17;;;18.40;1.00;;;;;;5091037;28;20465;-73
2022/08/16 04:55:14;;;;;;;2.80;2.60;;;18.40;1.00;;;;;;5091172;28;20433;-73
2022/08/16 04:57:42;;;;;;;3.17;2.57;;;18.50;1.00;;;;;;5091609;28;20782;-72
2022/08/16 05:00:21;;;;;;;3.63;2.70;;;18.50;1.00;;;;;;5091174;28;20449;-73
2022/08/16 05:02:50;;;;;;;3.13;2.40;;;18.50;1.00;;;;;;5090957;28;20545;-73
2022/08/16 05:05:19;;;;;;;3.97;2.87;;;18.60;99.90;;;;;;5090695;28;20448;-73
2022/08/16 05:07:46;;;;;;;2.50;2.17;;;18.70;99.90;;;;;;5090540;28;20448;-72
2022/08/16 05:10:13;;;;;;;2.77;2.57;;;18.70;99.90;;;;;;5091216;28;20437;-72
2022/08/16 05:12:39;;;;;;;3.70;2.83;;;18.70;99.90;;;;;;5091385;28;20473;-72
2022/08/16 05:15:08;;;;;;;2.47;2.27;;;18.80;99.90;;;;;;5090373;28;20445;-73
2022/08/16 05:17:35;;;;;;;3.67;2.63;;;18.80;1.00;;;;;;5091130;28;20464;-72
2022/08/16 05:20:04;;;;;;;5.70;2.50;;;18.90;1.00;;;;;;5090322;28;20441;-73
2022/08/16 05:22:34;;;;;;;2.90;2.60;;;19.00;1.00;;;;;;5091184;28;20440;-72
2022/08/16 05:25:01;;;;;;;3.47;2.90;;;19.00;99.90;;;;;;5090246;28;20433;-73
2022/08/16 05:27:28;;;;;;;3.57;2.70;;;19.20;44.60;;;;;;5090848;28;20908;-73
2022/08/16 05:29:55;;;;;;;3.30;2.70;;;19.30;1.00;;;;;;5090587;28;20448;-73
2022/08/16 05:32:21;;;;;;;3.07;2.43;;;19.40;99.90;;;;;;5090807;28;20452;-72
2022/08/16 05:34:48;;;;;;;3.83;3.20;;;19.40;99.90;;;;;;5092940;28;20839;-73
2022/08/16 05:37:15;;;;;;;3.13;2.23;;;19.50;1.00;;;;;;5095076;28;20457;-73
2022/08/16 05:39:43;;;;;;;3.53;3.13;;;19.40;1.00;;;;;;5094443;28;20868;-70
2022/08/16 05:42:10;;;;;;;4.43;2.70;;;19.50;1.00;;;;;;5095172;28;20539;-72
2022/08/16 05:44:37;;;;;;;2.50;2.27;;;19.50;1.00;;;;;;5095102;28;20447;-73
2022/08/16 05:47:04;;;;;;;3.93;3.13;;;19.50;99.90;;;;;;5105199;28;20918;-73
2022/08/16 05:49:32;;;;;;;3.13;2.50;;;19.60;99.90;;;;;;5094992;28;20476;-72
2022/08/16 05:51:58;;;;;;;3.13;2.83;;;19.60;99.90;;;;;;5094115;28;20460;-73
2022/08/16 05:54:27;;;;;;;2.90;2.70;;;19.70;66.70;;;;;;5094485;28;20480;-72
2022/08/16 05:56:56;;;;;;;4.00;2.80;;;19.80;1.00;;;;;;5094424;28;20441;-73
2022/08/16 05:59:24;;;;;;;4.50;3.37;;;19.80;21.70;;;;;;5094661;28;20524;-73
2022/08/16 06:01:51;;;;;;;6.03;2.70;;;19.80;1.00;;;;;;5093773;28;20903;-73
2022/08/16 06:04:19;;;;;;;3.07;2.40;;;19.80;1.00;;;;;;5094455;28;20451;-72
2022/08/16 06:06:46;;;;;;;3.83;2.17;;;19.80;1.00;;;;;;5093853;28;20961;-72
2022/08/16 06:09:15;;;;;;;2.60;2.30;;;19.90;1.00;;;;;;5094830;28;20441;-72
2022/08/16 06:11:43;;;;;;;3.00;2.70;;;20.00;1.00;;;;;;5093935;28;20451;-70
2022/08/16 06:14:11;;;;;;;2.53;2.27;;;20.00;99.90;;;;;;5094182;28;20476;-72
2022/08/16 06:16:38;;;;;;;2.43;2.23;;;20.00;99.90;;;;;;5099113;28;20941;-73
2022/08/16 06:19:05;;;;;;;3.03;2.50;;;20.00;99.90;;;;;;5094196;28;20447;-73
2022/08/16 06:21:32;;;;;;;3.37;2.97;;;20.00;99.90;;;;;;5094346;28;20961;-73
2022/08/16 06:23:59;;;;;;;2.63;2.37;;;19.90;99.90;;;;;;5093518;28;20862;-73
2022/08/16 06:26:25;;;;;;;3.00;2.70;;;19.90;99.90;;;;;;5094338;28;20778;-73
2022/08/16 06:28:52;;;;;;;2.60;2.40;;;20.00;99.90;;;;;;5093548;28;20527;-73
2022/08/16 06:31:21;;;;;;;3.10;2.60;;;20.00;99.90;;;;;;5093933;28;20443;-72
2022/08/16 06:33:48;;;;;;;2.67;2.47;;;20.00;99.90;;;;;;5093115;28;20595;-72
2022/08/16 06:36:15;;;;;;;2.87;2.60;;;20.00;99.90;;;;;;5093892;28;20471;-73
2022/08/16 06:38:42;;;;;;;3.87;3.20;;;20.10;99.90;;;;;;5093418;28;20476;-70
2022/08/16 06:41:10;;;;;;;4.33;2.23;;;20.20;1.00;;;;;;5080719;28;20539;-73
2022/08/16 06:43:37;;;;;;;5.37;2.87;;;20.30;1.00;;;;;;5093238;28;20449;-72
2022/08/16 06:46:09;;;;;;;3.27;2.40;;;20.40;1.00;;;;;;5098045;28;20436;-72
2022/08/16 06:48:39;;;;;;;2.70;2.40;;;20.60;99.90;;;;;;5099241;28;20437;-73
2022/08/16 06:51:07;;;;;;;3.73;2.90;;;20.80;99.90;;;;;;5093606;28;20743;-73
2022/08/16 06:53:35;;;;;;;3.27;2.77;;;20.90;99.90;;;;;;5093252;28;20476;-72
2022/08/16 06:56:05;;;;;;;2.90;2.13;;;21.00;89.90;;;;;;5093246;28;21351;-73
2022/08/16 06:58:32;;;;;;;2.83;2.63;;;21.10;13.20;;;;;;5093699;28;20576;-72
2022/08/16 07:01:00;;;;;;;2.50;2.23;;;21.10;1.00;;;;;;5092793;28;20861;-73
2022/08/16 07:03:27;;;;;;;3.00;2.70;;;21.10;1.00;;;;;;5093079;28;20460;-72
2022/08/16 07:05:56;;;;;;;4.13;3.07;;;21.20;1.00;;;;;;5092853;28;20436;-72
2022/08/16 07:08:23;;;;;;;3.10;2.80;;;21.20;1.00;;;;;;5093232;28;20433;-72
2022/08/16 07:10:51;;;;;;;2.73;2.53;;;21.30;1.00;;;;;;5092633;28;20439;-72
2022/08/16 07:13:18;;;;;;;3.20;3.00;;;21.40;1.00;;;;;;5093307;28;20825;-73
2022/08/16 07:15:45;;;;;;;3.90;3.00;;;21.50;1.00;;;;;;5095097;28;20441;-72
2022/08/16 07:18:14;;;;;;;4.20;2.90;;;21.60;1.00;;;;;;5095361;27;20441;-72
2022/08/16 07:20:43;;;;;;;3.00;2.70;;;21.70;1.00;;;;;;5093316;28;20494;-72
2022/08/16 07:23:11;;;;;;;3.10;2.70;;;21.80;1.00;;;;;;5093037;28;20448;-73
2022/08/16 07:25:38;;;;;;;2.87;2.60;;;21.90;1.00;;;;;;5093052;28;20845;-73
2022/08/16 07:28:05;;;;;;;3.00;2.70;;;21.90;1.00;;;;;;5092515;28;20437;-72
2022/08/16 07:30:37;;;;;;;5.17;3.50;;;21.90;1.00;;;;;;5092783;28;20499;-74
2022/08/16 07:33:05;;;;;;;3.87;3.53;;;22.10;1.00;;;;;;5092298;28;20489;-74
2022/08/16 07:35:33;;;;;;;3.40;3.10;;;22.20;99.90;;;;;;5092000;28;20448;-73
2022/08/16 07:38:00;;;;;;;3.80;3.43;;;22.20;99.90;;;;;;5092503;28;20445;-73
2022/08/16 07:40:28;;;;;;;3.07;2.87;;;22.20;99.90;;;;;;5092794;28;20527;-73
2022/08/16 07:42:55;;;;;;;5.63;3.50;;;22.30;99.90;;;;;;5092362;28;20437;-73
2022/08/16 07:45:22;;;;;;;4.30;3.30;;;22.40;99.90;;;;;;5091968;28;20896;-72
2022/08/16 07:47:49;;;;;;;4.97;3.40;;;22.50;99.90;;;;;;5103005;28;20441;-73
2022/08/16 07:50:16;;;;;;;3.50;2.93;;;22.60;99.90;;;;;;5092674;28;20438;-72
2022/08/16 07:52:43;;;;;;;3.27;2.97;;;22.70;99.90;;;;;;5092110;28;20437;-72
2022/08/16 07:55:13;;;;;;;2.93;2.70;;;22.60;99.90;;;;;;5092281;28;20480;-72
2022/08/16 07:57:42;;;;;;;3.40;3.10;;;22.50;99.90;;;;;;5091682;28;20440;-73
2022/08/16 08:00:11;;;;;;;3.50;3.20;;;22.60;99.90;;;;;;5092135;28;20441;-73
2022/08/16 08:02:38;;;;;;;3.73;3.30;;;22.80;99.90;;;;;;5092310;28;20676;-73
2022/08/16 08:05:06;;;;;;;3.37;3.00;;;23.00;99.90;;;;;;5091076;28;20927;-72
2022/08/16 08:07:33;;;;;;;2.90;2.70;;;23.30;99.90;;;;;;5092274;28;20447;-73
2022/08/16 08:10:00;;;;;;;2.77;2.57;;;23.50;99.90;;;;;;5091863;28;20447;-73
2022/08/16 08:12:27;;;;;;;3.43;3.13;;;23.50;99.90;;;;;;5091935;28;20914;-73
2022/08/16 08:14:55;;;;;;;3.73;3.43;;;23.70;99.90;;;;;;5090834;28;20487;-73
2022/08/16 08:17:22;;;;;;;6.97;2.87;;;23.70;99.90;;;;;;5096864;28;20465;-73
2022/08/16 08:19:49;;;;;;;3.83;3.53;;;24.00;99.90;;;;;;5089409;28;20451;-73
2022/08/16 08:22:16;;;;;;;3.47;3.17;;;24.00;99.90;;;;;;5091225;28;20528;-73
2022/08/16 08:24:44;;;;;;;3.30;3.00;;;23.90;99.90;;;;;;5089195;28;20473;-73
2022/08/16 08:27:10;;;;;;;3.30;3.00;;;23.90;99.90;;;;;;5088377;28;20470;-72
2022/08/16 08:29:37;;;;;;;4.30;3.10;;;23.90;99.90;;;;;;5091397;28;20441;-72
2022/08/16 08:32:07;;;;;;;2.77;2.33;;;23.70;99.90;;;;;;5088242;28;20468;-73
2022/08/16 08:34:34;;;;;;;3.20;3.00;;;23.80;99.90;;;;;;5090571;28;20476;-73
2022/08/16 08:37:01;;;;;;;2.63;2.43;;;23.80;99.90;;;;;;5089850;28;20841;-73
2022/08/16 08:39:28;;;;;;;3.33;3.03;;;23.90;99.90;;;;;;5086754;28;20773;-73
2022/08/16 08:41:55;;;;;;;5.30;3.43;;;24.00;99.90;;;;;;5088808;28;20528;-73
2022/08/16 08:44:21;;;;;;;3.67;3.37;;;23.80;99.90;;;;;;5086756;28;20794;-71
2022/08/16 08:46:48;;;;;;;3.40;3.10;;;23.80;99.90;;;;;;5091914;28;20847;-71
2022/08/16 08:49:17;;;;;;;3.60;3.30;;;24.00;99.90;;;;;;5089147;28;20831;-73
2022/08/16 08:51:44;;;;;;;3.97;3.67;;;23.80;99.90;;;;;;5089771;28;20440;-72
2022/08/16 08:54:13;;;;;;;4.00;3.60;;;23.80;99.90;;;;;;5089259;28;20482;-73
2022/08/16 08:56:40;;;;;;;5.10;3.13;;;24.00;99.90;;;;;;5091719;28;20449;-73
2022/08/16 08:59:08;;;;;;;3.40;3.10;;;24.00;99.90;;;;;;5091422;28;20444;-73
2022/08/16 09:01:37;;;;;;;3.60;3.03;;;24.00;99.90;;;;;;5090541;28;20483;-73
2022/08/16 09:04:05;;;;;;;3.60;3.30;;;;;;;;;;5089699;28;20448;-73
2022/08/16 09:06:34;;;;;;;4.13;2.90;;;;;;;;;;5089168;28;20489;-73
2022/08/16 09:09:01;;;;;;;2.53;2.33;;;;;;;;;;5089567;28;20453;-74
2022/08/16 09:11:29;;;;;;;6.53;3.63;;;;;;;;;;5091360;28;20498;-73
2022/08/16 09:13:56;;;;;;;3.50;3.20;;;;;;;;;;5090398;28;20826;-74
2022/08/16 09:16:23;;;;;;;2.90;2.70;;;;;;;;;;5095185;28;20476;-73
2022/08/16 09:18:50;;;;;;;3.30;3.00;;;;;;;;;;5090270;28;20935;-73
2022/08/16 09:21:19;;;;;;;3.80;3.50;;;;;;;;;;5091186;28;20436;-73
2022/08/16 09:23:48;;;;;;;3.90;3.10;;;;;;;;;;5090352;28;20460;-73
2022/08/16 09:26:16;;;;;;;3.67;3.37;;;;;;;;;;5091125;28;20524;-73
2022/08/16 09:28:44;;;;;;;3.30;2.97;;;;;;;;;;5090813;28;20436;-71
2022/08/16 09:31:11;;;;;;;3.40;3.10;;;;;;;;;;5090803;28;20448;-73
2022/08/16 09:33:39;;;;;;;4.67;3.53;;;;;;;;;;5090835;28;20441;-73
2022/08/16 09:36:07;;;;;;;4.23;3.50;;;;;;;;;;5090016;28;20476;-73
2022/08/16 09:38:35;;;;;;;4.03;2.90;;;;;;;;;;5091056;28;20445;-73
2022/08/16 09:41:05;;;;;;;4.80;2.90;;;;;;;;;;5090265;28;20756;-74
2022/08/16 09:43:35;;;;;;;3.40;3.10;;;;;;;;;;5090568;28;20896;-72
2022/08/16 09:46:03;;;;;;;3.47;3.17;;;;;;;;;;5095423;28;20811;-73
2022/08/16 09:48:31;;;;;;;3.73;3.43;;;;;;;;;;5096649;28;20456;-73
2022/08/16 09:50:58;;;;;;;3.60;3.30;;;;;;;;;;5090123;28;20943;-73
2022/08/16 09:53:25;;;;;;;6.13;3.30;;;;;;;;;;5090020;28;20442;-73
2022/08/16 09:55:54;;;;;;;3.47;3.23;;;;;;;;;;5090136;28;20484;-75
2022/08/16 09:58:23;;;;;;;2.80;2.60;;;;;;;;;;5090767;28;20561;-73
2022/08/16 10:00:51;;;;;;;3.40;3.10;;;;;;;;;;5090267;28;20816;-73
2022/08/16 10:03:18;;;;;;;6.50;3.67;;;;;;;;;;5089812;28;20456;-73
2022/08/16 10:05:45;;;;;;;3.40;2.97;;;;;;;;;;5090252;28;20860;-73
2022/08/16 10:08:12;;;;;;;3.20;3.00;;;;;;;;;;5090651;28;20524;-72
2022/08/16 10:10:41;;;;;;;3.60;3.30;;;;;;;;;;5090684;28;20520;-74
2022/08/16 10:13:13;;;;;;;4.10;3.80;;;;;;;;;;5090192;28;20444;-73
2022/08/16 10:15:42;;;;;;;3.20;2.90;;;;;;;;;;5092843;28;20471;-73
2022/08/16 10:18:11;;;;;;;3.87;3.13;;;;;;;;;;5092425;28;20437;-73
2022/08/16 10:20:41;;;;;;;3.57;3.27;;;;;;;;;;5092734;28;20497;-74
2022/08/16 10:23:10;;;;;;;3.80;2.97;;;;;;;;;;5094216;28;20443;-73
2022/08/16 10:25:39;;;;;;;3.80;3.20;;;;;;;;;;5094326;28;20444;-74
2022/08/16 10:28:07;;;;;;;5.00;3.47;;;;;;;;;;5093374;28;20494;-75
2022/08/16 10:30:34;;;;;;;3.57;2.90;;;;;;;;;;5093838;28;20992;-74
2022/08/16 10:33:03;;;;;;;3.37;3.17;;;;;;;;;;5093659;28;20792;-73
2022/08/16 10:35:31;;;;;;;3.43;3.13;;;;;;;;;;5093727;28;20480;-73
2022/08/16 10:37:58;;;;;;;3.33;3.10;;;;;;;;;;5093228;28;20436;-73
2022/08/16 10:40:25;;;;;;;4.40;3.60;;;;;;;;;;5093761;28;20441;-73
2022/08/16 10:42:52;;;;;;;2.60;2.40;;;;;;;;;;5093440;28;20440;-74
2022/08/16 10:45:19;;;;;;;6.03;3.53;;;;;;;;;;5093107;28;20449;-74
2022/08/16 10:47:47;;;;;;;4.20;3.63;;;;;;;;;;5104581;28;20979;-73
2022/08/16 10:50:15;;;;;;;4.67;3.23;;;;;;;;;;5088824;28;20470;-73
2022/08/16 10:52:42;;;;;;;3.30;3.00;;;;;;;;;;5092973;28;20454;-70
2022/08/16 10:55:11;;;;;;;4.00;3.63;;;;;;;;;;5092455;28;20484;-71
2022/08/16 10:57:38;;;;;;;3.10;2.87;;;;;;;;;;5092944;28;20437;-73
2022/08/16 11:00:09;;;;;;;5.00;3.20;;;;;;;;;;5092778;28;20775;-75
2022/08/16 11:02:36;;;;;;;5.47;3.17;;;;;;;;;;5099234;28;20471;-74
2022/08/16 11:05:05;;;;;;;3.60;3.30;;;;;;;;;;5095450;28;20452;-74
2022/08/16 11:07:33;;;;;;;4.10;3.13;;;;;;;;;;5092552;28;20454;-74
2022/08/16 11:10:01;;;;;;;3.47;3.17;;;;;;;;;;5092313;28;20467;-74
2022/08/16 11:12:28;;;;;;;4.73;3.70;;;;;;;;;;5092657;28;20459;-73
2022/08/16 11:14:55;;;;;;;3.93;2.87;;;;;;;;;;5091935;28;20475;-73
2022/08/16 11:17:22;;;;;;;3.50;2.90;;;;;;;;;;5097536;28;20455;-74
2022/08/16 11:19:49;;;;;;;3.47;3.17;;;;;;;;;;5092764;28;20443;-74
2022/08/16 11:22:18;;;;;;;4.27;3.97;;;;;;;;;;5092524;28;20444;-73
2022/08/16 11:24:47;;;;;;;3.53;3.23;;;;;;;;;;5091634;28;20501;-74
2022/08/16 11:27:15;;;;;;;3.40;3.10;;;;;;;;;;5092779;28;20447;-74
2022/08/16 11:29:42;;;;;;;2.87;2.67;;;;;;;;;;5078955;28;20432;-70
2022/08/16 11:32:10;;;;;;;2.93;2.70;;;;;;;;;;5092275;28;20915;-71
2022/08/16 11:34:37;;;;;;;3.20;3.00;;;;;;;;;;5092067;28;20444;-74
2022/08/16 11:37:04;;;;;;;3.60;3.30;;;;;;;;;;5092180;28;20465;-74
2022/08/16 11:39:32;;;;;;;3.40;3.10;;;;;;;;;;5092090;28;20440;-73
2022/08/16 11:42:01;;;;;;;3.30;3.00;;;;;;;;;;5091943;28;20839;-73
2022/08/16 11:44:28;;;;;;;3.60;3.30;;;;;;;;;;5091766;28;20507;-73
2022/08/16 11:46:55;;;;;;;3.57;3.27;;;;;;;;;;5103619;28;20435;-73
2022/08/16 11:49:22;;;;;;;3.73;3.43;;;;;;;;;;5091846;28;20444;-74
2022/08/16 11:51:50;;;;;;;3.83;2.60;;;;;;;;;;5091493;28;20440;-74
2022/08/16 11:54:17;;;;;;;4.10;3.80;;;;;;;;;;5092031;28;20931;-73
2022/08/16 11:56:44;;;;;;;3.23;3.00;;;;;;;;;;5091669;28;20476;-73
2022/08/16 11:59:13;;;;;;;2.90;2.60;;;;;;;;;;5091841;28;20440;-73
2022/08/16 12:01:41;;;;;;;3.03;2.83;;;;;;;;;;5090090;28;20552;-72
2022/08/16 12:04:09;;;;;;;3.30;3.10;;;;;;;;;;5090708;28;20452;-73
2022/08/16 12:06:37;;;;;;;3.40;2.87;;;;;;;;;;5091573;28;20487;-74
2022/08/16 12:09:04;;;;;;;3.60;3.30;;;;;;;;;;5089074;28;20810;-73
2022/08/16 12:11:32;;;;;;;3.40;3.13;;;;;;;;;;5089075;28;20546;-73
2022/08/16 12:13:59;;;;;;;4.40;3.10;;;;;;;;;;5090943;28;20509;-74
2022/08/16 12:16:28;;;;;;;3.00;2.80;;;;;;;;;;5094293;28;20963;-73
2022/08/16 12:18:55;;;;;;;2.90;2.70;;;;;;;;;;5090900;28;20836;-74
2022/08/16 12:21:22;;;;;;;3.60;3.30;;;;;;;;;;5090612;28;20480;-74
2022/08/16 12:23:49;;;;;;;3.03;2.83;;;;;;;;;;5090772;28;20599;-74
2022/08/16 12:26:17;;;;;;;3.60;3.13;;;;;;;;;;5089281;28;20453;-73
2022/08/16 12:28:44;;;;;;;3.63;3.33;;;;;;;;;;5091079;28;20432;-73
2022/08/16 12:31:11;;;;;;;3.60;3.30;;;;;;;;;;5088383;28;20855;-73
2022/08/16 12:33:42;;;;;;;4.50;3.63;;;;;;;;;;5089755;28;20957;-73
2022/08/16 12:36:10;;;;;;;3.13;2.93;;;;;;;;;;5088863;28;20480;-70
2022/08/16 12:38:37;;;;;;;3.20;2.90;;;;;;;;;;5090657;28;20453;-74
2022/08/16 12:41:04;;;;;;;3.60;3.30;;;;;;;;;;5091197;28;20444;-73
2022/08/16 12:43:31;;;;;;;3.57;3.07;;;;;;;;;;5091360;28;20519;-74
2022/08/16 12:45:59;;;;;;;3.70;3.27;;;;;;;;;;5082362;28;20455;-74
2022/08/16 12:51:16;;;;;;;3.27;3.00;;;;;;;;;;5091410;28;20917;-73
2022/08/16 12:53:43;;;;;;;3.63;3.33;;;;;;;;;;5090792;28;20437;-73
2022/08/16 12:56:11;;;;;;;3.17;2.87;;;;;;;;;;5091683;28;20503;-73
2022/08/16 12:58:39;;;;;;;4.07;3.03;;;;;;;;;;5091457;28;20458;-73
2022/08/16 13:01:06;;;;;;;3.10;2.90;;;;;;;;;;5091217;28;20448;-73
2022/08/16 13:03:33;;;;;;;3.00;2.70;;;;;;;;;;5090928;28;20457;-74
2022/08/16 13:06:01;;;;;;;3.23;3.00;;;;;;;;;;5090501;28;20935;-74
2022/08/16 13:08:29;;;;;;;6.20;3.23;;;;;;;;;;5091396;28;20432;-73
2022/08/16 13:10:56;;;;;;;3.30;3.00;;;;;;;;;;5090824;28;20531;-74
2022/08/16 13:13:25;;;;;;;3.57;3.10;;;;;;;;;;5090908;28;20472;-73
2022/08/16 13:15:52;;;;;;;3.70;2.80;;;;;;;;;;5090575;28;20476;-73
2022/08/16 13:18:20;;;;;;;2.70;2.50;;;;;;;;;;5090968;28;20440;-73
2022/08/16 13:20:47;;;;;;;3.10;2.90;;;;;;;;;;5090581;28;20436;-73
2022/08/16 13:23:15;;;;;;;3.30;2.80;;;;;;;;;;5090438;28;20551;-73
2022/08/16 13:25:44;;;;;;;4.27;3.90;;;;;;;;;;5090851;28;20907;-72
2022/08/16 13:28:12;;;;;;;2.67;2.47;;;;;;;;;;5091036;28;20790;-72
2022/08/16 13:30:41;;;;;;;3.23;3.00;;;;;;;;;;5091237;28;20571;-73